Joanne Reinauer — WCW8841 — position and weather

sailwx.info

Track history (hours):
 
Tides and Currents Weather Stations Pressure Air Temp Water Temp Dewpoint Dewpoint Depression Visibility Wind Speed Wind Dir Waves Ship Positions

Joanne Reinauer

Owner: REINAUER TRANSPORTATION CO.LLC., STATEN ISLAND, NY. More information available from US FCC via Universal Licensing System and Coast Guard Vessel Documentation Center.

Last reported at 2018-Feb-21 20:53 UTC. Time now 2018-Apr-20 05:13 UTC.
Position N 40°38' W 074°08'.
Warning: this ship's position is 57 days out of date.

Length 114 m; draft 4.3 m.

Type: Tug. MMSI: 366238690.

Date/timePositionNaut miles runAvg speedWind from/ knotsBaromVisibWave heightAir tempDewpointWater temp
2018-Feb-21 20:53N 40°38' W 074°08'0 0.0
2018-Feb-21 20:26N 40°38' W 074°08'0 0.0
2018-Feb-21 19:50N 40°38' W 074°08'0 0.1
2018-Feb-21 19:29N 40°38' W 074°08'0 0.1
2018-Feb-21 18:59N 40°38' W 074°08'0 0.0
2018-Feb-21 18:29N 40°38' W 074°08'0 0.0
2018-Feb-21 17:59N 40°38' W 074°08'0 0.0
2018-Feb-21 17:29N 40°38' W 074°08'0 0.0
2018-Feb-21 16:59N 40°38' W 074°08'0 0.0
2018-Feb-21 16:29N 40°38' W 074°08'0 0.0
2018-Feb-21 16:00N 40°38' W 074°08'0 0.0
2018-Feb-21 15:30N 40°38' W 074°08'0 0.0
2018-Feb-21 15:00N 40°38' W 074°08'0 0.0
2018-Feb-21 14:30N 40°38' W 074°08'0 0.0
2018-Feb-21 14:00N 40°38' W 074°08'3 6.6
2018-Feb-21 13:30N 40°39' W 074°03'2 3.9
2018-Feb-21 13:00N 40°40' W 074°01'1 1.3
2018-Feb-21 12:30N 40°40' W 074°02'1 1.2
2018-Feb-21 11:58N 40°40' W 074°01'0 0.0
2018-Feb-21 11:28N 40°40' W 074°01'0 0.0
2018-Feb-21 10:58N 40°40' W 074°01'0 0.0
2018-Feb-21 10:28N 40°40' W 074°01'0 0.0
2018-Feb-21 09:58N 40°40' W 074°01'0 0.0
2018-Feb-21 09:28N 40°40' W 074°01'0 0.0
2018-Feb-21 08:58N 40°40' W 074°01'0 0.0
2018-Feb-21 08:28N 40°40' W 074°01'0 0.0
2018-Feb-21 07:58N 40°40' W 074°01'0 0.0
2018-Feb-21 07:28N 40°40' W 074°01'0 0.0
2018-Feb-21 06:58N 40°40' W 074°01'0 0.0
2018-Feb-21 06:30N 40°40' W 074°01'0 0.8
2018-Feb-21 06:00N 40°40' W 074°01'1 2.5
2018-Feb-21 05:30N 40°40' W 074°03'1 1.2
2018-Feb-21 05:00N 40°39' W 074°03'1 2.8
2018-Feb-21 04:29N 40°40' W 074°01'0 0.0
2018-Feb-21 03:59N 40°40' W 074°01'0 0.0
2018-Feb-21 03:29N 40°40' W 074°01'0 0.0
2018-Feb-21 02:59N 40°40' W 074°01'0 0.0
2018-Feb-21 02:29N 40°40' W 074°01'0 0.0
2018-Feb-21 01:59N 40°40' W 074°01'0 0.0
2018-Feb-21 01:29N 40°40' W 074°01'0 0.0
2018-Feb-21 00:59N 40°40' W 074°01'0 0.0
2018-Feb-21 00:29N 40°40' W 074°01'0 0.0
2018-Feb-20 23:59N 40°40' W 074°01'0 0.0
2018-Feb-20 23:29N 40°40' W 074°01'0 0.0
2018-Feb-20 22:59N 40°40' W 074°01'0 0.0
2018-Feb-20 22:29N 40°40' W 074°01'0 0.0
2018-Feb-20 21:59N 40°40' W 074°01'0 0.0
2018-Feb-20 21:29N 40°40' W 074°01'0 0.0
2018-Feb-20 20:59N 40°40' W 074°01'0 0.0
2018-Feb-20 20:29N 40°40' W 074°01'0 0.0
2018-Feb-20 19:59N 40°40' W 074°01'0 0.0
2018-Feb-20 19:29N 40°40' W 074°01'0 0.0
2018-Feb-20 19:00N 40°40' W 074°01'3 6.9
2018-Feb-20 18:31N 40°39' W 074°05'2 3.7
2018-Feb-20 18:00N 40°38' W 074°08'0 0.0
2018-Feb-20 17:31N 40°38' W 074°08'0 0.4
2018-Feb-20 17:00N 40°39' W 074°07'3 6.4
2018-Feb-20 16:30N 40°39' W 074°03'2 3.6
2018-Feb-20 15:59N 40°40' W 074°01'0 0.0
2018-Feb-20 15:29N 40°40' W 074°01'0 0.0
2018-Feb-20 14:59N 40°40' W 074°01'0 0.0
2018-Feb-20 14:29N 40°40' W 074°01'0 0.0
2018-Feb-20 13:59N 40°40' W 074°01'0 0.0
2018-Feb-20 13:29N 40°40' W 074°01'0 0.0
2018-Feb-20 12:59N 40°40' W 074°01'0 0.0
2018-Feb-20 12:29N 40°40' W 074°01'0 0.0
2018-Feb-20 11:59N 40°40' W 074°01'0 0.0
2018-Feb-20 11:29N 40°40' W 074°01'0 0.0
2018-Feb-20 10:59N 40°40' W 074°01'0 0.0
2018-Feb-20 10:29N 40°40' W 074°01'0 0.0
2018-Feb-20 09:59N 40°40' W 074°01'0 0.0
2018-Feb-20 09:29N 40°40' W 074°01'0 0.0
2018-Feb-20 08:59N 40°40' W 074°01'0 0.0
2018-Feb-20 08:29N 40°40' W 074°01'0 0.0
2018-Feb-20 07:59N 40°40' W 074°01'0 0.0
2018-Feb-20 07:29N 40°40' W 074°01'0 0.0
2018-Feb-20 06:59N 40°40' W 074°01'0 0.0
2018-Feb-20 06:29N 40°40' W 074°01'0 0.0
2018-Feb-20 05:59N 40°40' W 074°01'0 0.0
2018-Feb-20 05:29N 40°40' W 074°01'1 1.3
2018-Feb-20 05:00N 40°40' W 074°02'0 0.9
2018-Feb-20 04:31N 40°40' W 074°01'0 0.5
2018-Feb-20 03:58N 40°40' W 074°01'0 0.0
2018-Feb-20 03:28N 40°40' W 074°01'0 0.0
2018-Feb-20 02:58N 40°40' W 074°01'0 0.0
2018-Feb-20 02:28N 40°40' W 074°01'0 0.0
2018-Feb-20 01:58N 40°40' W 074°01'1 1.4
2018-Feb-20 01:29N 40°40' W 074°02'0 0.1
2018-Feb-20 00:59N 40°40' W 074°02'0 0.0
2018-Feb-20 00:29N 40°40' W 074°02'0 0.0
2018-Feb-19 23:59N 40°40' W 074°02'0 0.0
2018-Feb-19 23:29N 40°40' W 074°02'0 0.7
2018-Feb-19 23:00N 40°40' W 074°02'1 1.2
2018-Feb-19 22:30N 40°40' W 074°01'0 0.0
2018-Feb-19 22:00N 40°40' W 074°01'0 0.0
2018-Feb-19 21:24N 40°40' W 074°01'0 0.0
2018-Feb-19 21:00N 40°40' W 074°01'0 0.0
2018-Feb-19 20:30N 40°40' W 074°01'0 0.0
2018-Feb-19 20:00N 40°40' W 074°01'0 0.0
2018-Feb-19 19:30N 40°40' W 074°01'0 0.0
2018-Feb-19 19:00N 40°40' W 074°01'0 0.0
2018-Feb-19 18:30N 40°40' W 074°01'0 0.0
2018-Feb-19 18:00N 40°40' W 074°01'0 0.0
2018-Feb-19 17:30N 40°40' W 074°01'0 0.0
2018-Feb-19 17:00N 40°40' W 074°01'0 0.0
2018-Feb-19 16:30N 40°40' W 074°01'0 0.0
2018-Feb-19 16:00N 40°40' W 074°01'0 0.0
2018-Feb-19 15:30N 40°40' W 074°01'0 0.0
2018-Feb-19 15:00N 40°40' W 074°01'0 0.0
2018-Feb-19 14:30N 40°40' W 074°01'0 0.0
2018-Feb-19 14:00N 40°40' W 074°01'0 0.0
2018-Feb-19 13:30N 40°40' W 074°01'0 0.0
2018-Feb-19 13:00N 40°40' W 074°01'0 0.0
2018-Feb-19 12:30N 40°40' W 074°01'0 0.0
2018-Feb-19 12:00N 40°40' W 074°01'0 0.0
2018-Feb-19 11:30N 40°40' W 074°01'0 0.0
2018-Feb-19 11:00N 40°40' W 074°01'0 0.3
2018-Feb-19 10:29N 40°40' W 074°01'1 1.6
2018-Feb-19 10:00N 40°41' W 074°01'4 7.1
2018-Feb-19 09:29N 40°44' W 073°58'4 7.7
2018-Feb-19 09:00N 40°47' W 073°56'2 3.3
2018-Feb-19 08:29N 40°48' W 073°54'0 0.0
2018-Feb-19 07:59N 40°48' W 073°54'0 0.0
2018-Feb-19 07:29N 40°48' W 073°54'0 0.0
2018-Feb-19 06:59N 40°48' W 073°54'0 0.0
2018-Feb-19 06:20N 40°48' W 073°54'0 0.0
2018-Feb-19 05:59N 40°48' W 073°54'0 0.0
2018-Feb-19 05:29N 40°48' W 073°54'0 0.0
2018-Feb-19 04:59N 40°48' W 073°54'0 0.0
2018-Feb-19 04:26N 40°48' W 073°54'0 0.0
2018-Feb-19 03:56N 40°48' W 073°54'0 0.0
2018-Feb-19 03:29N 40°48' W 073°54'0 0.0
2018-Feb-19 02:59N 40°48' W 073°54'0 0.0
2018-Feb-19 02:29N 40°48' W 073°54'0 0.0
2018-Feb-19 01:59N 40°48' W 073°54'0 0.0
2018-Feb-19 01:29N 40°48' W 073°54'0 0.0
2018-Feb-19 00:59N 40°48' W 073°54'0 0.0
2018-Feb-19 00:29N 40°48' W 073°54'0 0.0
2018-Feb-18 23:59N 40°48' W 073°54'0 0.0
2018-Feb-18 23:29N 40°48' W 073°54'0 0.0
2018-Feb-18 22:59N 40°48' W 073°54'0 0.0
2018-Feb-18 22:23N 40°48' W 073°54'0 0.0
2018-Feb-18 21:59N 40°48' W 073°54'0 0.0
2018-Feb-18 21:29N 40°48' W 073°54'0 0.0
2018-Feb-18 20:59N 40°48' W 073°54'0 0.0
2018-Feb-18 20:29N 40°48' W 073°54'0 0.0
2018-Feb-18 19:56N 40°48' W 073°54'0 0.0
2018-Feb-18 19:26N 40°48' W 073°54'0 0.0
2018-Feb-18 18:59N 40°48' W 073°54'0 0.0
2018-Feb-18 18:29N 40°48' W 073°54'0 0.0
2018-Feb-18 17:56N 40°48' W 073°54'0 0.0
2018-Feb-18 17:29N 40°48' W 073°54'0 0.0
2018-Feb-18 17:00N 40°48' W 073°54'2 4.1
2018-Feb-18 16:30N 40°47' W 073°56'4 7.6
2018-Feb-18 16:00N 40°43' W 073°58'4 8.6
2018-Feb-18 15:30N 40°40' W 074°02'2 4.5
2018-Feb-18 14:59N 40°39' W 074°05'0 0.0
2018-Feb-18 14:30N 40°39' W 074°05'1 2.5
2018-Feb-18 14:00N 40°39' W 074°03'2 3.6
2018-Feb-18 13:28N 40°40' W 074°01'0 0.0
2018-Feb-18 12:58N 40°40' W 074°01'0 0.0
2018-Feb-18 12:28N 40°40' W 074°01'0 0.0
2018-Feb-18 11:58N 40°40' W 074°01'0 0.0
2018-Feb-18 11:28N 40°40' W 074°01'0 0.0
2018-Feb-18 10:58N 40°40' W 074°01'0 0.0
2018-Feb-18 10:28N 40°40' W 074°01'0 0.0
2018-Feb-18 09:58N 40°40' W 074°01'0 0.0
2018-Feb-18 09:28N 40°40' W 074°01'0 0.0
2018-Feb-18 08:58N 40°40' W 074°01'0 0.0
2018-Feb-18 08:28N 40°40' W 074°01'0 0.0
2018-Feb-18 07:58N 40°40' W 074°01'0 0.0
2018-Feb-18 07:28N 40°40' W 074°01'0 0.0
2018-Feb-18 06:58N 40°40' W 074°01'0 0.0
2018-Feb-18 06:28N 40°40' W 074°01'0 0.0
2018-Feb-18 05:58N 40°40' W 074°01'0 0.0
2018-Feb-18 05:28N 40°40' W 074°01'0 0.0
2018-Feb-18 04:58N 40°40' W 074°01'0 0.0
2018-Feb-18 04:28N 40°40' W 074°01'0 0.0
2018-Feb-18 03:58N 40°40' W 074°01'0 0.0
2018-Feb-18 03:28N 40°40' W 074°01'0 0.0
2018-Feb-18 02:58N 40°40' W 074°01'0 0.0
2018-Feb-18 02:28N 40°40' W 074°01'0 0.0
2018-Feb-18 01:58N 40°40' W 074°01'0 0.0
2018-Feb-18 01:28N 40°40' W 074°01'0 0.0
2018-Feb-18 00:58N 40°40' W 074°01'0 0.0
2018-Feb-18 00:28N 40°40' W 074°01'0 0.0
2018-Feb-17 23:58N 40°40' W 074°01'0 0.0
2018-Feb-17 23:28N 40°40' W 074°01'0 0.0
2018-Feb-17 22:58N 40°40' W 074°01'0 0.0
2018-Feb-17 21:58N 40°40' W 074°01'0 0.0
2018-Feb-17 21:28N 40°40' W 074°01'0 0.0
2018-Feb-17 20:58N 40°40' W 074°01'0 0.0
2018-Feb-17 20:28N 40°40' W 074°01'0 0.0
2018-Feb-17 19:58N 40°40' W 074°01'0 0.0
2018-Feb-17 19:28N 40°40' W 074°01'0 0.0
2018-Feb-17 18:58N 40°40' W 074°01'0 0.0
2018-Feb-17 18:28N 40°40' W 074°01'0 0.0
2018-Feb-17 17:58N 40°40' W 074°01'0 0.0
2018-Feb-17 17:28N 40°40' W 074°01'0 0.0
2018-Feb-17 16:58N 40°40' W 074°01'0 0.0
2018-Feb-17 16:28N 40°40' W 074°01'0 0.0
2018-Feb-17 15:58N 40°40' W 074°01'0 0.0
2018-Feb-17 15:28N 40°40' W 074°01'0 0.0
2018-Feb-17 14:58N 40°40' W 074°01'0 0.0
2018-Feb-17 14:28N 40°40' W 074°01'0 0.0
2018-Feb-17 13:58N 40°40' W 074°01'0 0.0
2018-Feb-17 13:28N 40°40' W 074°01'0 0.0
2018-Feb-17 12:58N 40°40' W 074°01'0 0.0
2018-Feb-17 12:28N 40°40' W 074°01'0 0.0
2018-Feb-17 11:58N 40°40' W 074°01'0 0.0
2018-Feb-17 11:28N 40°40' W 074°01'0 0.0
2018-Feb-17 10:58N 40°40' W 074°01'0 0.0
2018-Feb-17 10:28N 40°40' W 074°01'0 0.0
2018-Feb-17 09:58N 40°40' W 074°01'0 0.0
2018-Feb-17 09:28N 40°40' W 074°01'0 0.0
2018-Feb-17 08:58N 40°40' W 074°01'0 0.0
2018-Feb-17 08:28N 40°40' W 074°01'0 0.0
2018-Feb-17 07:58N 40°40' W 074°01'0 0.0
2018-Feb-17 07:28N 40°40' W 074°01'0 0.0
2018-Feb-17 06:58N 40°40' W 074°01'0 0.0
2018-Feb-17 06:28N 40°40' W 074°01'0 0.0
2018-Feb-17 05:58N 40°40' W 074°01'0 0.0
2018-Feb-17 05:28N 40°40' W 074°01'0 0.0
2018-Feb-17 04:58N 40°40' W 074°01'0 0.0
2018-Feb-17 04:31N 40°40' W 074°01'0 0.1
2018-Feb-17 04:00N 40°40' W 074°01'0 0.1
2018-Feb-17 03:29N 40°40' W 074°01'0 0.0
2018-Feb-17 02:59N 40°40' W 074°01'0 0.0
2018-Feb-17 02:29N 40°40' W 074°01'0 0.0
2018-Feb-17 01:59N 40°40' W 074°01'0 0.0
2018-Feb-17 01:29N 40°40' W 074°01'0 0.0
2018-Feb-17 00:59N 40°40' W 074°01'0 0.0
2018-Feb-17 00:29N 40°40' W 074°01'0 0.0
2018-Feb-16 23:59N 40°40' W 074°01'0 0.0
2018-Feb-16 23:29N 40°40' W 074°01'0 0.0
2018-Feb-16 23:00N 40°40' W 074°01'0 0.0
2018-Feb-16 22:29N 40°40' W 074°01'0 0.0
2018-Feb-16 21:59N 40°40' W 074°01'0 0.3
2018-Feb-16 21:30N 40°40' W 074°01'2 2.8
2018-Feb-16 20:59N 40°39' W 074°03'0 0.0
2018-Feb-16 20:29N 40°39' W 074°03'0 0.0
2018-Feb-16 19:59N 40°39' W 074°03'0 0.0
2018-Feb-16 19:29N 40°39' W 074°03'0 0.1
2018-Feb-16 18:59N 40°39' W 074°03'0 0.0
2018-Feb-16 18:29N 40°39' W 074°03'0 0.0
2018-Feb-16 17:59N 40°39' W 074°03'1 2.7
2018-Feb-16 17:28N 40°40' W 074°01'0 0.0
2018-Feb-16 16:58N 40°40' W 074°01'0 0.0
2018-Feb-16 16:28N 40°40' W 074°01'0 0.0
2018-Feb-16 15:58N 40°40' W 074°01'0 0.0
2018-Feb-16 15:28N 40°40' W 074°01'0 0.0
2018-Feb-16 14:58N 40°40' W 074°01'0 0.0
2018-Feb-16 14:28N 40°40' W 074°01'0 0.0
2018-Feb-16 13:58N 40°40' W 074°01'0 0.0
2018-Feb-16 13:28N 40°40' W 074°01'0 0.0
2018-Feb-16 12:58N 40°40' W 074°01'0 0.0
2018-Feb-16 12:28N 40°40' W 074°01'0 0.0
2018-Feb-16 11:58N 40°40' W 074°01'0 0.0
2018-Feb-16 11:28N 40°40' W 074°01'0 0.0
2018-Feb-16 10:58N 40°40' W 074°01'0 0.0
2018-Feb-16 10:28N 40°40' W 074°01'0 0.0
2018-Feb-16 09:58N 40°40' W 074°01'0 0.0
2018-Feb-16 09:28N 40°40' W 074°01'0 0.0
2018-Feb-16 08:58N 40°40' W 074°01'0 0.0
2018-Feb-16 08:28N 40°40' W 074°01'0 0.0
2018-Feb-16 07:58N 40°40' W 074°01'0 0.0
2018-Feb-16 07:28N 40°40' W 074°01'0 0.0
2018-Feb-16 06:59N 40°40' W 074°01'0 0.0
2018-Feb-16 06:31N 40°40' W 074°01'0 0.0
2018-Feb-16 06:00N 40°40' W 074°01'0 0.0
2018-Feb-16 05:31N 40°40' W 074°01'0 0.0
2018-Feb-16 05:00N 40°40' W 074°01'0 0.0
2018-Feb-16 04:30N 40°40' W 074°01'0 0.0
2018-Feb-16 04:00N 40°40' W 074°01'0 0.0
2018-Feb-16 03:30N 40°40' W 074°01'0 0.0
2018-Feb-16 03:00N 40°40' W 074°01'0 0.0
2018-Feb-16 02:31N 40°40' W 074°01'0 0.0
2018-Feb-16 02:00N 40°40' W 074°01'0 0.0
2018-Feb-16 01:30N 40°40' W 074°01'0 0.0
2018-Feb-16 01:01N 40°40' W 074°01'0 0.0
2018-Feb-16 00:30N 40°40' W 074°01'0 0.0
2018-Feb-16 00:01N 40°40' W 074°01'0 0.0
2018-Feb-15 23:31N 40°40' W 074°01'0 0.0
2018-Feb-15 23:00N 40°40' W 074°01'0 0.0
2018-Feb-15 22:31N 40°40' W 074°01'0 0.0
2018-Feb-15 22:00N 40°40' W 074°01'0 0.0
2018-Feb-15 21:30N 40°40' W 074°01'0 0.0
2018-Feb-15 21:00N 40°40' W 074°01'0 0.0
2018-Feb-15 20:30N 40°40' W 074°01'0 0.0
2018-Feb-15 20:01N 40°40' W 074°01'0 0.0
2018-Feb-15 19:30N 40°40' W 074°01'0 0.0
2018-Feb-15 19:01N 40°40' W 074°01'0 0.0
2018-Feb-15 18:30N 40°40' W 074°01'0 0.0
2018-Feb-15 18:01N 40°40' W 074°01'0 0.0
2018-Feb-15 17:30N 40°40' W 074°01'0 0.0
2018-Feb-15 17:00N 40°40' W 074°01'0 0.0
2018-Feb-15 16:30N 40°40' W 074°01'0 0.0
2018-Feb-15 16:00N 40°40' W 074°01'0 0.0
2018-Feb-15 15:31N 40°40' W 074°01'0 0.0
2018-Feb-15 15:00N 40°40' W 074°01'0 0.0
2018-Feb-15 14:30N 40°40' W 074°01'0 0.0
2018-Feb-15 14:00N 40°40' W 074°01'0 0.0
2018-Feb-15 13:30N 40°40' W 074°01'0 0.0
2018-Feb-15 13:00N 40°40' W 074°01'0 0.0
2018-Feb-15 12:31N 40°40' W 074°01'0 0.0
2018-Feb-15 12:01N 40°40' W 074°01'0 0.0
2018-Feb-15 11:31N 40°40' W 074°01'0 0.0
2018-Feb-15 11:00N 40°40' W 074°01'0 0.0
2018-Feb-15 10:31N 40°40' W 074°01'0 0.0
2018-Feb-15 10:01N 40°40' W 074°01'0 0.0
2018-Feb-15 09:30N 40°40' W 074°01'0 0.0
2018-Feb-15 09:01N 40°40' W 074°01'0 0.0
2018-Feb-15 08:30N 40°40' W 074°01'0 0.0
2018-Feb-15 08:01N 40°40' W 074°01'0 0.0
2018-Feb-15 07:30N 40°40' W 074°01'0 0.0
2018-Feb-15 07:01N 40°40' W 074°01'0 0.0
2018-Feb-15 06:30N 40°40' W 074°01'0 0.0
2018-Feb-15 06:00N 40°40' W 074°01'0 0.0
2018-Feb-15 05:30N 40°40' W 074°01'0 0.0
2018-Feb-15 05:00N 40°40' W 074°01'0 0.0
2018-Feb-15 04:30N 40°40' W 074°01'0 0.0
2018-Feb-15 04:00N 40°40' W 074°01'0 0.0
2018-Feb-15 03:31N 40°40' W 074°01'2 3.0
2018-Feb-15 02:59N 40°39' W 074°02'0 0.2
2018-Feb-15 02:29N 40°39' W 074°02'0 0.1
2018-Feb-15 01:58N 40°39' W 074°02'0 0.0
2018-Feb-15 01:29N 40°39' W 074°02'0 0.0
2018-Feb-15 00:59N 40°39' W 074°02'0 0.0
2018-Feb-15 00:29N 40°39' W 074°02'0 0.1
2018-Feb-14 23:58N 40°39' W 074°02'0 0.0
2018-Feb-14 23:28N 40°39' W 074°02'0 0.0
2018-Feb-14 22:58N 40°39' W 074°02'1 3.1
2018-Feb-14 22:30N 40°40' W 074°01'0 0.1
2018-Feb-14 22:00N 40°40' W 074°01'0 0.0
2018-Feb-14 21:30N 40°40' W 074°01'0 0.0
2018-Feb-14 21:00N 40°40' W 074°01'0 0.0
2018-Feb-14 20:30N 40°40' W 074°01'0 0.0
2018-Feb-14 20:00N 40°40' W 074°01'0 0.0
2018-Feb-14 19:30N 40°40' W 074°01'0 0.0
2018-Feb-14 19:00N 40°40' W 074°01'0 0.0
2018-Feb-14 18:30N 40°40' W 074°01'0 0.0
2018-Feb-14 18:00N 40°40' W 074°01'0 0.0
2018-Feb-14 17:30N 40°40' W 074°01'0 0.0
2018-Feb-14 17:00N 40°40' W 074°01'0 0.0
2018-Feb-14 16:30N 40°40' W 074°01'0 0.0
2018-Feb-14 16:00N 40°40' W 074°01'0 0.0
2018-Feb-14 15:30N 40°40' W 074°01'0 0.0
2018-Feb-14 15:00N 40°40' W 074°01'0 0.0
2018-Feb-14 14:30N 40°40' W 074°01'0 0.0
2018-Feb-14 14:00N 40°40' W 074°01'0 0.0
2018-Feb-14 13:30N 40°40' W 074°01'0 0.0
2018-Feb-14 13:00N 40°40' W 074°01'0 0.0
2018-Feb-14 12:30N 40°40' W 074°01'0 0.0
2018-Feb-14 12:00N 40°40' W 074°01'0 0.0
2018-Feb-14 11:30N 40°40' W 074°01'0 0.0
2018-Feb-14 11:00N 40°40' W 074°01'0 0.0
2018-Feb-14 10:30N 40°40' W 074°01'0 0.0
2018-Feb-14 10:00N 40°40' W 074°01'0 0.0
2018-Feb-14 09:30N 40°40' W 074°01'0 0.0
2018-Feb-14 09:00N 40°40' W 074°01'0 0.0
2018-Feb-14 08:30N 40°40' W 074°01'0 0.0
2018-Feb-14 08:00N 40°40' W 074°01'0 0.3
2018-Feb-14 07:29N 40°40' W 074°01'0 0.3
2018-Feb-14 06:59N 40°40' W 074°01'0 0.5
2018-Feb-14 06:28N 40°40' W 074°01'0 0.0
2018-Feb-14 05:58N 40°40' W 074°01'0 0.0
2018-Feb-14 05:28N 40°40' W 074°01'0 0.0
2018-Feb-14 04:58N 40°40' W 074°01'0 0.0
2018-Feb-14 04:28N 40°40' W 074°01'0 0.0
2018-Feb-14 03:58N 40°40' W 074°01'0 0.0
2018-Feb-14 03:28N 40°40' W 074°01'0 0.0
2018-Feb-14 02:58N 40°40' W 074°01'0 0.0
2018-Feb-14 02:28N 40°40' W 074°01'0 0.0
2018-Feb-14 01:58N 40°40' W 074°01'0 0.0
2018-Feb-14 01:28N 40°40' W 074°01'0 0.0
2018-Feb-14 00:58N 40°40' W 074°01'0 0.0
2018-Feb-14 00:28N 40°40' W 074°01'0 0.0
2018-Feb-13 23:58N 40°40' W 074°01'0 0.0
2018-Feb-13 23:28N 40°40' W 074°01'0 0.0
2018-Feb-13 22:58N 40°40' W 074°01'0 0.0
2018-Feb-13 22:28N 40°40' W 074°01'0 0.0
2018-Feb-13 21:58N 40°40' W 074°01'0 0.0
2018-Feb-13 21:28N 40°40' W 074°01'0 0.0
2018-Feb-13 20:58N 40°40' W 074°01'0 0.0
2018-Feb-13 20:28N 40°40' W 074°01'0 0.0
2018-Feb-13 19:58N 40°40' W 074°01'0 0.0
2018-Feb-13 19:28N 40°40' W 074°01'0 0.0
2018-Feb-13 18:58N 40°40' W 074°01'0 0.0
2018-Feb-13 18:28N 40°40' W 074°01'0 0.0
2018-Feb-13 17:58N 40°40' W 074°01'0 0.0
2018-Feb-13 17:28N 40°40' W 074°01'0 0.0
2018-Feb-13 16:58N 40°40' W 074°01'0 0.0
2018-Feb-13 16:28N 40°40' W 074°01'0 0.0
2018-Feb-13 15:58N 40°40' W 074°01'0 0.0
2018-Feb-13 15:28N 40°40' W 074°01'0 0.0
2018-Feb-13 14:58N 40°40' W 074°01'0 0.0
2018-Feb-13 14:28N 40°40' W 074°01'0 0.0
2018-Feb-13 13:58N 40°40' W 074°01'0 0.0
2018-Feb-13 13:28N 40°40' W 074°01'0 0.0
2018-Feb-13 12:58N 40°40' W 074°01'0 0.0
2018-Feb-13 12:28N 40°40' W 074°01'0 0.0
2018-Feb-13 11:58N 40°40' W 074°01'0 0.0
2018-Feb-13 11:28N 40°40' W 074°01'0 0.0
2018-Feb-13 10:58N 40°40' W 074°01'0 0.0
2018-Feb-13 10:28N 40°40' W 074°01'0 0.0
2018-Feb-13 09:58N 40°40' W 074°01'0 0.0
2018-Feb-13 09:28N 40°40' W 074°01'0 0.0
2018-Feb-13 08:58N 40°40' W 074°01'0 0.0
2018-Feb-13 08:28N 40°40' W 074°01'0 0.0
2018-Feb-13 07:58N 40°40' W 074°01'0 0.0
2018-Feb-13 07:28N 40°40' W 074°01'0 0.0
2018-Feb-13 06:58N 40°40' W 074°01'0 0.0
2018-Feb-13 06:28N 40°40' W 074°01'0 0.0
2018-Feb-13 05:58N 40°40' W 074°01'0 0.0
2018-Feb-13 05:28N 40°40' W 074°01'0 0.0
2018-Feb-13 04:58N 40°40' W 074°01'0 0.0
2018-Feb-13 04:28N 40°40' W 074°01'0 0.0
2018-Feb-13 03:58N 40°40' W 074°01'0 0.0
2018-Feb-13 03:28N 40°40' W 074°01'0 0.0
2018-Feb-13 02:58N 40°40' W 074°01'0 0.0
2018-Feb-13 02:28N 40°40' W 074°01'0 0.0
2018-Feb-13 01:58N 40°40' W 074°01'0 0.0
2018-Feb-13 01:28N 40°40' W 074°01'0 0.0
2018-Feb-13 00:58N 40°40' W 074°01'0 0.0
2018-Feb-13 00:28N 40°40' W 074°01'0 0.0
2018-Feb-12 23:58N 40°40' W 074°01'0 0.0
2018-Feb-12 23:28N 40°40' W 074°01'0 0.0
2018-Feb-12 22:55N 40°40' W 074°01'0 0.0
2018-Feb-12 22:28N 40°40' W 074°01'0 0.0
2018-Feb-12 21:58N 40°40' W 074°01'0 0.0
2018-Feb-12 21:28N 40°40' W 074°01'0 0.0
2018-Feb-12 20:58N 40°40' W 074°01'0 0.0
2018-Feb-12 20:28N 40°40' W 074°01'0 0.0
2018-Feb-12 19:58N 40°40' W 074°01'0 0.0
2018-Feb-12 19:28N 40°40' W 074°01'0 0.0
2018-Feb-12 18:58N 40°40' W 074°01'0 0.0
2018-Feb-12 18:28N 40°40' W 074°01'0 0.0
2018-Feb-12 17:58N 40°40' W 074°01'0 0.0
2018-Feb-12 17:28N 40°40' W 074°01'0 0.0
2018-Feb-12 16:58N 40°40' W 074°01'0 0.0
2018-Feb-12 16:28N 40°40' W 074°01'0 0.0
2018-Feb-12 15:58N 40°40' W 074°01'0 0.0
2018-Feb-12 15:28N 40°40' W 074°01'0 0.0
2018-Feb-12 14:58N 40°40' W 074°01'0 0.0
2018-Feb-12 14:28N 40°40' W 074°01'0 0.0
2018-Feb-12 13:58N 40°40' W 074°01'0 0.0
2018-Feb-12 13:28N 40°40' W 074°01'0 0.0
2018-Feb-12 12:58N 40°40' W 074°01'0 0.0
2018-Feb-12 12:28N 40°40' W 074°01'0 0.0
2018-Feb-12 11:58N 40°40' W 074°01'0 0.0
2018-Feb-12 11:28N 40°40' W 074°01'0 0.0
2018-Feb-12 10:58N 40°40' W 074°01'0 0.0
2018-Feb-12 10:28N 40°40' W 074°01'0 0.0
2018-Feb-12 09:58N 40°40' W 074°01'0 0.0
2018-Feb-12 09:28N 40°40' W 074°01'0 0.0
2018-Feb-12 08:58N 40°40' W 074°01'0 0.0
2018-Feb-12 08:28N 40°40' W 074°01'0 0.0
2018-Feb-12 07:58N 40°40' W 074°01'0 0.0
2018-Feb-12 07:28N 40°40' W 074°01'0 0.0
2018-Feb-12 06:58N 40°40' W 074°01'0 0.0
2018-Feb-12 06:28N 40°40' W 074°01'0 0.0
2018-Feb-12 05:58N 40°40' W 074°01'0 0.0
2018-Feb-12 05:28N 40°40' W 074°01'0 0.0
2018-Feb-12 04:58N 40°40' W 074°01'0 0.0
2018-Feb-12 04:28N 40°40' W 074°01'0 0.0
2018-Feb-12 03:58N 40°40' W 074°01'0 0.0
2018-Feb-12 03:28N 40°40' W 074°01'0 0.0
2018-Feb-12 02:58N 40°40' W 074°01'0 0.0
2018-Feb-12 02:28N 40°40' W 074°01'0 0.0
2018-Feb-12 01:58N 40°40' W 074°01'0 0.0
2018-Feb-12 01:28N 40°40' W 074°01'0 0.0
2018-Feb-12 00:58N 40°40' W 074°01'0 0.0
2018-Feb-12 00:28N 40°40' W 074°01'0 0.0
2018-Feb-11 23:58N 40°40' W 074°01'0 0.0
2018-Feb-11 23:28N 40°40' W 074°01'0 0.0
2018-Feb-11 22:58N 40°40' W 074°01'0 0.0
2018-Feb-11 22:28N 40°40' W 074°01'0 0.0
2018-Feb-11 21:58N 40°40' W 074°01'0 0.0
2018-Feb-11 21:28N 40°40' W 074°01'0 0.0
2018-Feb-11 20:58N 40°40' W 074°01'  
Track history (hours):
 
Tides and Currents Weather Stations Pressure Air Temp Water Temp Dewpoint Dewpoint Depression Visibility Wind Speed Wind Dir Waves Ship Positions

Joanne Reinauer

Owner: REINAUER TRANSPORTATION CO.LLC., STATEN ISLAND, NY. More information available from US FCC via Universal Licensing System and Coast Guard Vessel Documentation Center.

Last reported at 2018-Feb-21 20:53 UTC. Time now 2018-Apr-20 05:13 UTC.
Position N 40°38' W 074°08'.
Warning: this ship's position is 57 days out of date.

Length 114 m; draft 4.3 m.

Type: Tug. MMSI: 366238690.

Date/timePositionNaut miles runAvg speedWind from/ knotsBaromVisibWave heightAir tempDewpointWater temp
2018-Feb-21 20:53N 40°38' W 074°08'0 0.0
2018-Feb-21 20:26N 40°38' W 074°08'0 0.0
2018-Feb-21 19:50N 40°38' W 074°08'0 0.1
2018-Feb-21 19:29N 40°38' W 074°08'0 0.1
2018-Feb-21 18:59N 40°38' W 074°08'0 0.0
2018-Feb-21 18:29N 40°38' W 074°08'0 0.0
2018-Feb-21 17:59N 40°38' W 074°08'0 0.0
2018-Feb-21 17:29N 40°38' W 074°08'0 0.0
2018-Feb-21 16:59N 40°38' W 074°08'0 0.0
2018-Feb-21 16:29N 40°38' W 074°08'0 0.0
2018-Feb-21 16:00N 40°38' W 074°08'0 0.0
2018-Feb-21 15:30N 40°38' W 074°08'0 0.0
2018-Feb-21 15:00N 40°38' W 074°08'0 0.0
2018-Feb-21 14:30N 40°38' W 074°08'0 0.0
2018-Feb-21 14:00N 40°38' W 074°08'3 6.6
2018-Feb-21 13:30N 40°39' W 074°03'2 3.9
2018-Feb-21 13:00N 40°40' W 074°01'1 1.3
2018-Feb-21 12:30N 40°40' W 074°02'1 1.2
2018-Feb-21 11:58N 40°40' W 074°01'0 0.0
2018-Feb-21 11:28N 40°40' W 074°01'0 0.0
2018-Feb-21 10:58N 40°40' W 074°01'0 0.0
2018-Feb-21 10:28N 40°40' W 074°01'0 0.0
2018-Feb-21 09:58N 40°40' W 074°01'0 0.0
2018-Feb-21 09:28N 40°40' W 074°01'0 0.0
2018-Feb-21 08:58N 40°40' W 074°01'0 0.0
2018-Feb-21 08:28N 40°40' W 074°01'0 0.0
2018-Feb-21 07:58N 40°40' W 074°01'0 0.0
2018-Feb-21 07:28N 40°40' W 074°01'0 0.0
2018-Feb-21 06:58N 40°40' W 074°01'0 0.0
2018-Feb-21 06:30N 40°40' W 074°01'0 0.8
2018-Feb-21 06:00N 40°40' W 074°01'1 2.5
2018-Feb-21 05:30N 40°40' W 074°03'1 1.2
2018-Feb-21 05:00N 40°39' W 074°03'1 2.8
2018-Feb-21 04:29N 40°40' W 074°01'0 0.0
2018-Feb-21 03:59N 40°40' W 074°01'0 0.0
2018-Feb-21 03:29N 40°40' W 074°01'0 0.0
2018-Feb-21 02:59N 40°40' W 074°01'0 0.0
2018-Feb-21 02:29N 40°40' W 074°01'0 0.0
2018-Feb-21 01:59N 40°40' W 074°01'0 0.0
2018-Feb-21 01:29N 40°40' W 074°01'0 0.0
2018-Feb-21 00:59N 40°40' W 074°01'0 0.0
2018-Feb-21 00:29N 40°40' W 074°01'0 0.0
2018-Feb-20 23:59N 40°40' W 074°01'0 0.0
2018-Feb-20 23:29N 40°40' W 074°01'0 0.0
2018-Feb-20 22:59N 40°40' W 074°01'0 0.0
2018-Feb-20 22:29N 40°40' W 074°01'0 0.0
2018-Feb-20 21:59N 40°40' W 074°01'0 0.0
2018-Feb-20 21:29N 40°40' W 074°01'0 0.0
2018-Feb-20 20:59N 40°40' W 074°01'0 0.0
2018-Feb-20 20:29N 40°40' W 074°01'0 0.0
2018-Feb-20 19:59N 40°40' W 074°01'0 0.0
2018-Feb-20 19:29N 40°40' W 074°01'0 0.0
2018-Feb-20 19:00N 40°40' W 074°01'3 6.9
2018-Feb-20 18:31N 40°39' W 074°05'2 3.7
2018-Feb-20 18:00N 40°38' W 074°08'0 0.0
2018-Feb-20 17:31N 40°38' W 074°08'0 0.4
2018-Feb-20 17:00N 40°39' W 074°07'3 6.4
2018-Feb-20 16:30N 40°39' W 074°03'2 3.6
2018-Feb-20 15:59N 40°40' W 074°01'0 0.0
2018-Feb-20 15:29N 40°40' W 074°01'0 0.0
2018-Feb-20 14:59N 40°40' W 074°01'0 0.0
2018-Feb-20 14:29N 40°40' W 074°01'0 0.0
2018-Feb-20 13:59N 40°40' W 074°01'0 0.0
2018-Feb-20 13:29N 40°40' W 074°01'0 0.0
2018-Feb-20 12:59N 40°40' W 074°01'0 0.0
2018-Feb-20 12:29N 40°40' W 074°01'0 0.0
2018-Feb-20 11:59N 40°40' W 074°01'0 0.0
2018-Feb-20 11:29N 40°40' W 074°01'0 0.0
2018-Feb-20 10:59N 40°40' W 074°01'0 0.0
2018-Feb-20 10:29N 40°40' W 074°01'0 0.0
2018-Feb-20 09:59N 40°40' W 074°01'0 0.0
2018-Feb-20 09:29N 40°40' W 074°01'0 0.0
2018-Feb-20 08:59N 40°40' W 074°01'0 0.0
2018-Feb-20 08:29N 40°40' W 074°01'0 0.0
2018-Feb-20 07:59N 40°40' W 074°01'0 0.0
2018-Feb-20 07:29N 40°40' W 074°01'0 0.0
2018-Feb-20 06:59N 40°40' W 074°01'0 0.0
2018-Feb-20 06:29N 40°40' W 074°01'0 0.0
2018-Feb-20 05:59N 40°40' W 074°01'0 0.0
2018-Feb-20 05:29N 40°40' W 074°01'1 1.3
2018-Feb-20 05:00N 40°40' W 074°02'0 0.9
2018-Feb-20 04:31N 40°40' W 074°01'0 0.5
2018-Feb-20 03:58N 40°40' W 074°01'0 0.0
2018-Feb-20 03:28N 40°40' W 074°01'0 0.0
2018-Feb-20 02:58N 40°40' W 074°01'0 0.0
2018-Feb-20 02:28N 40°40' W 074°01'0 0.0
2018-Feb-20 01:58N 40°40' W 074°01'1 1.4
2018-Feb-20 01:29N 40°40' W 074°02'0 0.1
2018-Feb-20 00:59N 40°40' W 074°02'0 0.0
2018-Feb-20 00:29N 40°40' W 074°02'0 0.0
2018-Feb-19 23:59N 40°40' W 074°02'0 0.0
2018-Feb-19 23:29N 40°40' W 074°02'0 0.7
2018-Feb-19 23:00N 40°40' W 074°02'1 1.2
2018-Feb-19 22:30N 40°40' W 074°01'0 0.0
2018-Feb-19 22:00N 40°40' W 074°01'0 0.0
2018-Feb-19 21:24N 40°40' W 074°01'0 0.0
2018-Feb-19 21:00N 40°40' W 074°01'0 0.0
2018-Feb-19 20:30N 40°40' W 074°01'0 0.0
2018-Feb-19 20:00N 40°40' W 074°01'0 0.0
2018-Feb-19 19:30N 40°40' W 074°01'0 0.0
2018-Feb-19 19:00N 40°40' W 074°01'0 0.0
2018-Feb-19 18:30N 40°40' W 074°01'0 0.0
2018-Feb-19 18:00N 40°40' W 074°01'0 0.0
2018-Feb-19 17:30N 40°40' W 074°01'0 0.0
2018-Feb-19 17:00N 40°40' W 074°01'0 0.0
2018-Feb-19 16:30N 40°40' W 074°01'0 0.0
2018-Feb-19 16:00N 40°40' W 074°01'0 0.0
2018-Feb-19 15:30N 40°40' W 074°01'0 0.0
2018-Feb-19 15:00N 40°40' W 074°01'0 0.0
2018-Feb-19 14:30N 40°40' W 074°01'0 0.0
2018-Feb-19 14:00N 40°40' W 074°01'0 0.0
2018-Feb-19 13:30N 40°40' W 074°01'0 0.0
2018-Feb-19 13:00N 40°40' W 074°01'0 0.0
2018-Feb-19 12:30N 40°40' W 074°01'0 0.0
2018-Feb-19 12:00N 40°40' W 074°01'0 0.0
2018-Feb-19 11:30N 40°40' W 074°01'0 0.0
2018-Feb-19 11:00N 40°40' W 074°01'0 0.3
2018-Feb-19 10:29N 40°40' W 074°01'1 1.6
2018-Feb-19 10:00N 40°41' W 074°01'4 7.1
2018-Feb-19 09:29N 40°44' W 073°58'4 7.7
2018-Feb-19 09:00N 40°47' W 073°56'2 3.3
2018-Feb-19 08:29N 40°48' W 073°54'0 0.0
2018-Feb-19 07:59N 40°48' W 073°54'0 0.0
2018-Feb-19 07:29N 40°48' W 073°54'0 0.0
2018-Feb-19 06:59N 40°48' W 073°54'0 0.0
2018-Feb-19 06:20N 40°48' W 073°54'0 0.0
2018-Feb-19 05:59N 40°48' W 073°54'0 0.0
2018-Feb-19 05:29N 40°48' W 073°54'0 0.0
2018-Feb-19 04:59N 40°48' W 073°54'0 0.0
2018-Feb-19 04:26N 40°48' W 073°54'0 0.0
2018-Feb-19 03:56N 40°48' W 073°54'0 0.0
2018-Feb-19 03:29N 40°48' W 073°54'0 0.0
2018-Feb-19 02:59N 40°48' W 073°54'0 0.0
2018-Feb-19 02:29N 40°48' W 073°54'0 0.0
2018-Feb-19 01:59N 40°48' W 073°54'0 0.0
2018-Feb-19 01:29N 40°48' W 073°54'0 0.0
2018-Feb-19 00:59N 40°48' W 073°54'0 0.0
2018-Feb-19 00:29N 40°48' W 073°54'0 0.0
2018-Feb-18 23:59N 40°48' W 073°54'0 0.0
2018-Feb-18 23:29N 40°48' W 073°54'0 0.0
2018-Feb-18 22:59N 40°48' W 073°54'0 0.0
2018-Feb-18 22:23N 40°48' W 073°54'0 0.0
2018-Feb-18 21:59N 40°48' W 073°54'0 0.0
2018-Feb-18 21:29N 40°48' W 073°54'0 0.0
2018-Feb-18 20:59N 40°48' W 073°54'0 0.0
2018-Feb-18 20:29N 40°48' W 073°54'0 0.0
2018-Feb-18 19:56N 40°48' W 073°54'0 0.0
2018-Feb-18 19:26N 40°48' W 073°54'0 0.0
2018-Feb-18 18:59N 40°48' W 073°54'0 0.0
2018-Feb-18 18:29N 40°48' W 073°54'0 0.0
2018-Feb-18 17:56N 40°48' W 073°54'0 0.0
2018-Feb-18 17:29N 40°48' W 073°54'0 0.0
2018-Feb-18 17:00N 40°48' W 073°54'2 4.1
2018-Feb-18 16:30N 40°47' W 073°56'4 7.6
2018-Feb-18 16:00N 40°43' W 073°58'4 8.6
2018-Feb-18 15:30N 40°40' W 074°02'2 4.5
2018-Feb-18 14:59N 40°39' W 074°05'0 0.0
2018-Feb-18 14:30N 40°39' W 074°05'1 2.5
2018-Feb-18 14:00N 40°39' W 074°03'2 3.6
2018-Feb-18 13:28N 40°40' W 074°01'0 0.0
2018-Feb-18 12:58N 40°40' W 074°01'0 0.0
2018-Feb-18 12:28N 40°40' W 074°01'0 0.0
2018-Feb-18 11:58N 40°40' W 074°01'0 0.0
2018-Feb-18 11:28N 40°40' W 074°01'0 0.0
2018-Feb-18 10:58N 40°40' W 074°01'0 0.0
2018-Feb-18 10:28N 40°40' W 074°01'0 0.0
2018-Feb-18 09:58N 40°40' W 074°01'0 0.0
2018-Feb-18 09:28N 40°40' W 074°01'0 0.0
2018-Feb-18 08:58N 40°40' W 074°01'0 0.0
2018-Feb-18 08:28N 40°40' W 074°01'0 0.0
2018-Feb-18 07:58N 40°40' W 074°01'0 0.0
2018-Feb-18 07:28N 40°40' W 074°01'0 0.0
2018-Feb-18 06:58N 40°40' W 074°01'0 0.0
2018-Feb-18 06:28N 40°40' W 074°01'0 0.0
2018-Feb-18 05:58N 40°40' W 074°01'0 0.0
2018-Feb-18 05:28N 40°40' W 074°01'0 0.0
2018-Feb-18 04:58N 40°40' W 074°01'0 0.0
2018-Feb-18 04:28N 40°40' W 074°01'0 0.0
2018-Feb-18 03:58N 40°40' W 074°01'0 0.0
2018-Feb-18 03:28N 40°40' W 074°01'0 0.0
2018-Feb-18 02:58N 40°40' W 074°01'0 0.0
2018-Feb-18 02:28N 40°40' W 074°01'0 0.0
2018-Feb-18 01:58N 40°40' W 074°01'0 0.0
2018-Feb-18 01:28N 40°40' W 074°01'0 0.0
2018-Feb-18 00:58N 40°40' W 074°01'0 0.0
2018-Feb-18 00:28N 40°40' W 074°01'0 0.0
2018-Feb-17 23:58N 40°40' W 074°01'0 0.0
2018-Feb-17 23:28N 40°40' W 074°01'0 0.0
2018-Feb-17 22:58N 40°40' W 074°01'0 0.0
2018-Feb-17 21:58N 40°40' W 074°01'0 0.0
2018-Feb-17 21:28N 40°40' W 074°01'0 0.0
2018-Feb-17 20:58N 40°40' W 074°01'0 0.0
2018-Feb-17 20:28N 40°40' W 074°01'0 0.0
2018-Feb-17 19:58N 40°40' W 074°01'0 0.0
2018-Feb-17 19:28N 40°40' W 074°01'0 0.0
2018-Feb-17 18:58N 40°40' W 074°01'0 0.0
2018-Feb-17 18:28N 40°40' W 074°01'0 0.0
2018-Feb-17 17:58N 40°40' W 074°01'0 0.0
2018-Feb-17 17:28N 40°40' W 074°01'0 0.0
2018-Feb-17 16:58N 40°40' W 074°01'0 0.0
2018-Feb-17 16:28N 40°40' W 074°01'0 0.0
2018-Feb-17 15:58N 40°40' W 074°01'0 0.0
2018-Feb-17 15:28N 40°40' W 074°01'0 0.0
2018-Feb-17 14:58N 40°40' W 074°01'0 0.0
2018-Feb-17 14:28N 40°40' W 074°01'0 0.0
2018-Feb-17 13:58N 40°40' W 074°01'0 0.0
2018-Feb-17 13:28N 40°40' W 074°01'0 0.0
2018-Feb-17 12:58N 40°40' W 074°01'0 0.0
2018-Feb-17 12:28N 40°40' W 074°01'0 0.0
2018-Feb-17 11:58N 40°40' W 074°01'0 0.0
2018-Feb-17 11:28N 40°40' W 074°01'0 0.0
2018-Feb-17 10:58N 40°40' W 074°01'0 0.0
2018-Feb-17 10:28N 40°40' W 074°01'0 0.0
2018-Feb-17 09:58N 40°40' W 074°01'0 0.0
2018-Feb-17 09:28N 40°40' W 074°01'0 0.0
2018-Feb-17 08:58N 40°40' W 074°01'0 0.0
2018-Feb-17 08:28N 40°40' W 074°01'0 0.0
2018-Feb-17 07:58N 40°40' W 074°01'0 0.0
2018-Feb-17 07:28N 40°40' W 074°01'0 0.0
2018-Feb-17 06:58N 40°40' W 074°01'0 0.0
2018-Feb-17 06:28N 40°40' W 074°01'0 0.0
2018-Feb-17 05:58N 40°40' W 074°01'0 0.0
2018-Feb-17 05:28N 40°40' W 074°01'0 0.0
2018-Feb-17 04:58N 40°40' W 074°01'0 0.0
2018-Feb-17 04:31N 40°40' W 074°01'0 0.1
2018-Feb-17 04:00N 40°40' W 074°01'0 0.1
2018-Feb-17 03:29N 40°40' W 074°01'0 0.0
2018-Feb-17 02:59N 40°40' W 074°01'0 0.0
2018-Feb-17 02:29N 40°40' W 074°01'0 0.0
2018-Feb-17 01:59N 40°40' W 074°01'0 0.0
2018-Feb-17 01:29N 40°40' W 074°01'0 0.0
2018-Feb-17 00:59N 40°40' W 074°01'0 0.0
2018-Feb-17 00:29N 40°40' W 074°01'0 0.0
2018-Feb-16 23:59N 40°40' W 074°01'0 0.0
2018-Feb-16 23:29N 40°40' W 074°01'0 0.0
2018-Feb-16 23:00N 40°40' W 074°01'0 0.0
2018-Feb-16 22:29N 40°40' W 074°01'0 0.0
2018-Feb-16 21:59N 40°40' W 074°01'0 0.3
2018-Feb-16 21:30N 40°40' W 074°01'2 2.8
2018-Feb-16 20:59N 40°39' W 074°03'0 0.0
2018-Feb-16 20:29N 40°39' W 074°03'0 0.0
2018-Feb-16 19:59N 40°39' W 074°03'0 0.0
2018-Feb-16 19:29N 40°39' W 074°03'0 0.1
2018-Feb-16 18:59N 40°39' W 074°03'0 0.0
2018-Feb-16 18:29N 40°39' W 074°03'0 0.0
2018-Feb-16 17:59N 40°39' W 074°03'1 2.7
2018-Feb-16 17:28N 40°40' W 074°01'0 0.0
2018-Feb-16 16:58N 40°40' W 074°01'0 0.0
2018-Feb-16 16:28N 40°40' W 074°01'0 0.0
2018-Feb-16 15:58N 40°40' W 074°01'0 0.0
2018-Feb-16 15:28N 40°40' W 074°01'0 0.0
2018-Feb-16 14:58N 40°40' W 074°01'0 0.0
2018-Feb-16 14:28N 40°40' W 074°01'0 0.0
2018-Feb-16 13:58N 40°40' W 074°01'0 0.0
2018-Feb-16 13:28N 40°40' W 074°01'0 0.0
2018-Feb-16 12:58N 40°40' W 074°01'0 0.0
2018-Feb-16 12:28N 40°40' W 074°01'0 0.0
2018-Feb-16 11:58N 40°40' W 074°01'0 0.0
2018-Feb-16 11:28N 40°40' W 074°01'0 0.0
2018-Feb-16 10:58N 40°40' W 074°01'0 0.0
2018-Feb-16 10:28N 40°40' W 074°01'0 0.0
2018-Feb-16 09:58N 40°40' W 074°01'0 0.0
2018-Feb-16 09:28N 40°40' W 074°01'0 0.0
2018-Feb-16 08:58N 40°40' W 074°01'0 0.0
2018-Feb-16 08:28N 40°40' W 074°01'0 0.0
2018-Feb-16 07:58N 40°40' W 074°01'0 0.0
2018-Feb-16 07:28N 40°40' W 074°01'0 0.0
2018-Feb-16 06:59N 40°40' W 074°01'0 0.0
2018-Feb-16 06:31N 40°40' W 074°01'0 0.0
2018-Feb-16 06:00N 40°40' W 074°01'0 0.0
2018-Feb-16 05:31N 40°40' W 074°01'0 0.0
2018-Feb-16 05:00N 40°40' W 074°01'0 0.0
2018-Feb-16 04:30N 40°40' W 074°01'0 0.0
2018-Feb-16 04:00N 40°40' W 074°01'0 0.0
2018-Feb-16 03:30N 40°40' W 074°01'0 0.0
2018-Feb-16 03:00N 40°40' W 074°01'0 0.0
2018-Feb-16 02:31N 40°40' W 074°01'0 0.0
2018-Feb-16 02:00N 40°40' W 074°01'0 0.0
2018-Feb-16 01:30N 40°40' W 074°01'0 0.0
2018-Feb-16 01:01N 40°40' W 074°01'0 0.0
2018-Feb-16 00:30N 40°40' W 074°01'0 0.0
2018-Feb-16 00:01N 40°40' W 074°01'0 0.0
2018-Feb-15 23:31N 40°40' W 074°01'0 0.0
2018-Feb-15 23:00N 40°40' W 074°01'0 0.0
2018-Feb-15 22:31N 40°40' W 074°01'0 0.0
2018-Feb-15 22:00N 40°40' W 074°01'0 0.0
2018-Feb-15 21:30N 40°40' W 074°01'0 0.0
2018-Feb-15 21:00N 40°40' W 074°01'0 0.0
2018-Feb-15 20:30N 40°40' W 074°01'0 0.0
2018-Feb-15 20:01N 40°40' W 074°01'0 0.0
2018-Feb-15 19:30N 40°40' W 074°01'0 0.0
2018-Feb-15 19:01N 40°40' W 074°01'0 0.0
2018-Feb-15 18:30N 40°40' W 074°01'0 0.0
2018-Feb-15 18:01N 40°40' W 074°01'0 0.0
2018-Feb-15 17:30N 40°40' W 074°01'0 0.0
2018-Feb-15 17:00N 40°40' W 074°01'0 0.0
2018-Feb-15 16:30N 40°40' W 074°01'0 0.0
2018-Feb-15 16:00N 40°40' W 074°01'0 0.0
2018-Feb-15 15:31N 40°40' W 074°01'0 0.0
2018-Feb-15 15:00N 40°40' W 074°01'0 0.0
2018-Feb-15 14:30N 40°40' W 074°01'0 0.0
2018-Feb-15 14:00N 40°40' W 074°01'0 0.0
2018-Feb-15 13:30N 40°40' W 074°01'0 0.0
2018-Feb-15 13:00N 40°40' W 074°01'0 0.0
2018-Feb-15 12:31N 40°40' W 074°01'0 0.0
2018-Feb-15 12:01N 40°40' W 074°01'0 0.0
2018-Feb-15 11:31N 40°40' W 074°01'0 0.0
2018-Feb-15 11:00N 40°40' W 074°01'0 0.0
2018-Feb-15 10:31N 40°40' W 074°01'0 0.0
2018-Feb-15 10:01N 40°40' W 074°01'0 0.0
2018-Feb-15 09:30N 40°40' W 074°01'0 0.0
2018-Feb-15 09:01N 40°40' W 074°01'0 0.0
2018-Feb-15 08:30N 40°40' W 074°01'0 0.0
2018-Feb-15 08:01N 40°40' W 074°01'0 0.0
2018-Feb-15 07:30N 40°40' W 074°01'0 0.0
2018-Feb-15 07:01N 40°40' W 074°01'0 0.0
2018-Feb-15 06:30N 40°40' W 074°01'0 0.0
2018-Feb-15 06:00N 40°40' W 074°01'0 0.0
2018-Feb-15 05:30N 40°40' W 074°01'0 0.0
2018-Feb-15 05:00N 40°40' W 074°01'0 0.0
2018-Feb-15 04:30N 40°40' W 074°01'0 0.0
2018-Feb-15 04:00N 40°40' W 074°01'0 0.0
2018-Feb-15 03:31N 40°40' W 074°01'2 3.0
2018-Feb-15 02:59N 40°39' W 074°02'0 0.2
2018-Feb-15 02:29N 40°39' W 074°02'0 0.1
2018-Feb-15 01:58N 40°39' W 074°02'0 0.0
2018-Feb-15 01:29N 40°39' W 074°02'0 0.0
2018-Feb-15 00:59N 40°39' W 074°02'0 0.0
2018-Feb-15 00:29N 40°39' W 074°02'0 0.1
2018-Feb-14 23:58N 40°39' W 074°02'0 0.0
2018-Feb-14 23:28N 40°39' W 074°02'0 0.0
2018-Feb-14 22:58N 40°39' W 074°02'1 3.1
2018-Feb-14 22:30N 40°40' W 074°01'0 0.1
2018-Feb-14 22:00N 40°40' W 074°01'0 0.0
2018-Feb-14 21:30N 40°40' W 074°01'0 0.0
2018-Feb-14 21:00N 40°40' W 074°01'0 0.0
2018-Feb-14 20:30N 40°40' W 074°01'0 0.0
2018-Feb-14 20:00N 40°40' W 074°01'0 0.0
2018-Feb-14 19:30N 40°40' W 074°01'0 0.0
2018-Feb-14 19:00N 40°40' W 074°01'0 0.0
2018-Feb-14 18:30N 40°40' W 074°01'0 0.0
2018-Feb-14 18:00N 40°40' W 074°01'0 0.0
2018-Feb-14 17:30N 40°40' W 074°01'0 0.0
2018-Feb-14 17:00N 40°40' W 074°01'0 0.0
2018-Feb-14 16:30N 40°40' W 074°01'0 0.0
2018-Feb-14 16:00N 40°40' W 074°01'0 0.0
2018-Feb-14 15:30N 40°40' W 074°01'0 0.0
2018-Feb-14 15:00N 40°40' W 074°01'0 0.0
2018-Feb-14 14:30N 40°40' W 074°01'0 0.0
2018-Feb-14 14:00N 40°40' W 074°01'0 0.0
2018-Feb-14 13:30N 40°40' W 074°01'0 0.0
2018-Feb-14 13:00N 40°40' W 074°01'0 0.0
2018-Feb-14 12:30N 40°40' W 074°01'0 0.0
2018-Feb-14 12:00N 40°40' W 074°01'0 0.0
2018-Feb-14 11:30N 40°40' W 074°01'0 0.0
2018-Feb-14 11:00N 40°40' W 074°01'0 0.0
2018-Feb-14 10:30N 40°40' W 074°01'0 0.0
2018-Feb-14 10:00N 40°40' W 074°01'0 0.0
2018-Feb-14 09:30N 40°40' W 074°01'0 0.0
2018-Feb-14 09:00N 40°40' W 074°01'0 0.0
2018-Feb-14 08:30N 40°40' W 074°01'0 0.0
2018-Feb-14 08:00N 40°40' W 074°01'0 0.3
2018-Feb-14 07:29N 40°40' W 074°01'0 0.3
2018-Feb-14 06:59N 40°40' W 074°01'0 0.5
2018-Feb-14 06:28N 40°40' W 074°01'0 0.0
2018-Feb-14 05:58N 40°40' W 074°01'0 0.0
2018-Feb-14 05:28N 40°40' W 074°01'0 0.0
2018-Feb-14 04:58N 40°40' W 074°01'0 0.0
2018-Feb-14 04:28N 40°40' W 074°01'0 0.0
2018-Feb-14 03:58N 40°40' W 074°01'0 0.0
2018-Feb-14 03:28N 40°40' W 074°01'0 0.0
2018-Feb-14 02:58N 40°40' W 074°01'0 0.0
2018-Feb-14 02:28N 40°40' W 074°01'0 0.0
2018-Feb-14 01:58N 40°40' W 074°01'0 0.0
2018-Feb-14 01:28N 40°40' W 074°01'0 0.0
2018-Feb-14 00:58N 40°40' W 074°01'0 0.0
2018-Feb-14 00:28N 40°40' W 074°01'0 0.0
2018-Feb-13 23:58N 40°40' W 074°01'0 0.0
2018-Feb-13 23:28N 40°40' W 074°01'0 0.0
2018-Feb-13 22:58N 40°40' W 074°01'0 0.0
2018-Feb-13 22:28N 40°40' W 074°01'0 0.0
2018-Feb-13 21:58N 40°40' W 074°01'0 0.0
2018-Feb-13 21:28N 40°40' W 074°01'0 0.0
2018-Feb-13 20:58N 40°40' W 074°01'0 0.0
2018-Feb-13 20:28N 40°40' W 074°01'0 0.0
2018-Feb-13 19:58N 40°40' W 074°01'0 0.0
2018-Feb-13 19:28N 40°40' W 074°01'0 0.0
2018-Feb-13 18:58N 40°40' W 074°01'0 0.0
2018-Feb-13 18:28N 40°40' W 074°01'0 0.0
2018-Feb-13 17:58N 40°40' W 074°01'0 0.0
2018-Feb-13 17:28N 40°40' W 074°01'0 0.0
2018-Feb-13 16:58N 40°40' W 074°01'0 0.0
2018-Feb-13 16:28N 40°40' W 074°01'0 0.0
2018-Feb-13 15:58N 40°40' W 074°01'0 0.0
2018-Feb-13 15:28N 40°40' W 074°01'0 0.0
2018-Feb-13 14:58N 40°40' W 074°01'0 0.0
2018-Feb-13 14:28N 40°40' W 074°01'0 0.0
2018-Feb-13 13:58N 40°40' W 074°01'0 0.0
2018-Feb-13 13:28N 40°40' W 074°01'0 0.0
2018-Feb-13 12:58N 40°40' W 074°01'0 0.0
2018-Feb-13 12:28N 40°40' W 074°01'0 0.0
2018-Feb-13 11:58N 40°40' W 074°01'0 0.0
2018-Feb-13 11:28N 40°40' W 074°01'0 0.0
2018-Feb-13 10:58N 40°40' W 074°01'0 0.0
2018-Feb-13 10:28N 40°40' W 074°01'0 0.0
2018-Feb-13 09:58N 40°40' W 074°01'0 0.0
2018-Feb-13 09:28N 40°40' W 074°01'0 0.0
2018-Feb-13 08:58N 40°40' W 074°01'0 0.0
2018-Feb-13 08:28N 40°40' W 074°01'0 0.0
2018-Feb-13 07:58N 40°40' W 074°01'0 0.0
2018-Feb-13 07:28N 40°40' W 074°01'0 0.0
2018-Feb-13 06:58N 40°40' W 074°01'0 0.0
2018-Feb-13 06:28N 40°40' W 074°01'0 0.0
2018-Feb-13 05:58N 40°40' W 074°01'0 0.0
2018-Feb-13 05:28N 40°40' W 074°01'0 0.0
2018-Feb-13 04:58N 40°40' W 074°01'0 0.0
2018-Feb-13 04:28N 40°40' W 074°01'0 0.0
2018-Feb-13 03:58N 40°40' W 074°01'0 0.0
2018-Feb-13 03:28N 40°40' W 074°01'0 0.0
2018-Feb-13 02:58N 40°40' W 074°01'0 0.0
2018-Feb-13 02:28N 40°40' W 074°01'0 0.0
2018-Feb-13 01:58N 40°40' W 074°01'0 0.0
2018-Feb-13 01:28N 40°40' W 074°01'0 0.0
2018-Feb-13 00:58N 40°40' W 074°01'0 0.0
2018-Feb-13 00:28N 40°40' W 074°01'0 0.0
2018-Feb-12 23:58N 40°40' W 074°01'0 0.0
2018-Feb-12 23:28N 40°40' W 074°01'0 0.0
2018-Feb-12 22:55N 40°40' W 074°01'0 0.0
2018-Feb-12 22:28N 40°40' W 074°01'0 0.0
2018-Feb-12 21:58N 40°40' W 074°01'0 0.0
2018-Feb-12 21:28N 40°40' W 074°01'0 0.0
2018-Feb-12 20:58N 40°40' W 074°01'0 0.0
2018-Feb-12 20:28N 40°40' W 074°01'0 0.0
2018-Feb-12 19:58N 40°40' W 074°01'0 0.0
2018-Feb-12 19:28N 40°40' W 074°01'0 0.0
2018-Feb-12 18:58N 40°40' W 074°01'0 0.0
2018-Feb-12 18:28N 40°40' W 074°01'0 0.0
2018-Feb-12 17:58N 40°40' W 074°01'0 0.0
2018-Feb-12 17:28N 40°40' W 074°01'0 0.0
2018-Feb-12 16:58N 40°40' W 074°01'0 0.0
2018-Feb-12 16:28N 40°40' W 074°01'0 0.0
2018-Feb-12 15:58N 40°40' W 074°01'0 0.0
2018-Feb-12 15:28N 40°40' W 074°01'0 0.0
2018-Feb-12 14:58N 40°40' W 074°01'0 0.0
2018-Feb-12 14:28N 40°40' W 074°01'0 0.0
2018-Feb-12 13:58N 40°40' W 074°01'0 0.0
2018-Feb-12 13:28N 40°40' W 074°01'0 0.0
2018-Feb-12 12:58N 40°40' W 074°01'0 0.0
2018-Feb-12 12:28N 40°40' W 074°01'0 0.0
2018-Feb-12 11:58N 40°40' W 074°01'0 0.0
2018-Feb-12 11:28N 40°40' W 074°01'0 0.0
2018-Feb-12 10:58N 40°40' W 074°01'0 0.0
2018-Feb-12 10:28N 40°40' W 074°01'0 0.0
2018-Feb-12 09:58N 40°40' W 074°01'0 0.0
2018-Feb-12 09:28N 40°40' W 074°01'0 0.0
2018-Feb-12 08:58N 40°40' W 074°01'0 0.0
2018-Feb-12 08:28N 40°40' W 074°01'0 0.0
2018-Feb-12 07:58N 40°40' W 074°01'0 0.0
2018-Feb-12 07:28N 40°40' W 074°01'0 0.0
2018-Feb-12 06:58N 40°40' W 074°01'0 0.0
2018-Feb-12 06:28N 40°40' W 074°01'0 0.0
2018-Feb-12 05:58N 40°40' W 074°01'0 0.0
2018-Feb-12 05:28N 40°40' W 074°01'0 0.0
2018-Feb-12 04:58N 40°40' W 074°01'0 0.0
2018-Feb-12 04:28N 40°40' W 074°01'0 0.0
2018-Feb-12 03:58N 40°40' W 074°01'0 0.0
2018-Feb-12 03:28N 40°40' W 074°01'0 0.0
2018-Feb-12 02:58N 40°40' W 074°01'0 0.0
2018-Feb-12 02:28N 40°40' W 074°01'0 0.0
2018-Feb-12 01:58N 40°40' W 074°01'0 0.0
2018-Feb-12 01:28N 40°40' W 074°01'0 0.0
2018-Feb-12 00:58N 40°40' W 074°01'0 0.0
2018-Feb-12 00:28N 40°40' W 074°01'0 0.0
2018-Feb-11 23:58N 40°40' W 074°01'0 0.0
2018-Feb-11 23:28N 40°40' W 074°01'0 0.0
2018-Feb-11 22:58N 40°40' W 074°01'0 0.0
2018-Feb-11 22:28N 40°40' W 074°01'0 0.0
2018-Feb-11 21:58N 40°40' W 074°01'0 0.0
2018-Feb-11 21:28N 40°40' W 074°01'0 0.0
2018-Feb-11 20:58N 40°40' W 074°01'  

Dump ship's entire track history